Aérodrome de Reims Prunay

LFQA · Marne, Grand Est, 法国

罗盘
风向 的 Aérodrome de Reims Prunay 7/25
风: 3 kt, 1 beaufort

1 kt

3 kt
改变
0 ft 1.000 2.000 3.000 4.000 5.000
Cloud Cloud Cloud Cloud Cloud Cloud Cloud Cloud
OVC 1.500
METAR LFQA 201100Z AUTO VRB03KT 9999 OVC015 19/16 Q1017

METAR Aérodrome de Reims Prunay - LFQA

Aérodrome de Reims Prunay是,法国中的小机场。 该机场位于纬度49,20880和经度4,15705。 该机场有2条跑道: 7/25 和 7R/25L. 本场的ICAO机场代码为LFQA。 机场在Paris FIR中。

该航空气象观测是针对Aérodrome de Reims Prunay在2024年6月20日 13:00, 当地时间进行的。

机场观察

可变方向的风很小或没有风。

可见度为10 km 或者更多。

有乌云密布在1.500 ft的高度。 破损或更高的上限为1.500 ft。

温度和风寒是19 °C。 露点为16 °C,相对湿度为83%。 海平面上的气压为1017 hPa (QNH)。

白天

今天,太阳从05:37升起,在21:52降落。 这适用于Aérodrome de Reims Prunay,世界夏令时可能有所不同。 当地时间与世界标准时间之间的时差为+2 小时。 夏令时目前正在进行中。

公司介绍

在这个机场,你可以找到飞行俱乐部。 这个机场上的公司有Aéroclub de Champagne, Aéroclub du CRNA - Est 和 Reims Voltige。

体会

到Vliegles.nl去找飞行课程,跳伞和其他飞行体验。 浏览页面,了解Aérodrome de Reims Prunay附近所有可用的活动。 你也可以使用搜索功能来寻找你所在地附近的特定飞行课程、跳伞或其他飞行体验。

跑道

Id 标题 侧风 逆风 侧风 %
7/25 065°-245° 3 kt 1 kt 91 %
7R/25L 065°-245° 3 kt 1 kt 91 %

逆风成分最大的方向会被突出显示,并用于横风计算。 这并不一定意味着这个方向在使用。

乌云

1.500 ft OVC 乌云密布

温度 & 天气

温度 19 °C
露点 16 °C
相对湿度 83%
Kp-index 1 (0-9)

白天

日出
05:37
中午
13:45
日落
21:52 (8:34)

小工具

你想在你的网站上有一个关于Aérodrome de Reims Prunay的当前航空天气(METAR)的小部件吗?

显示HTML代码
报告变更